sensor_id;sensor_type;location;lat;lon;timestamp;temperature;humidity
9157;DHT22;4613;48.392;9.998;2022-10-31T00:00:09;12.30;99.90
9157;DHT22;4613;48.392;9.998;2022-10-31T00:03:01;12.80;99.90
9157;DHT22;4613;48.392;9.998;2022-10-31T00:05:51;12.90;99.90
9157;DHT22;4613;48.392;9.998;2022-10-31T00:08:41;12.90;99.90
9157;DHT22;4613;48.392;9.998;2022-10-31T00:11:31;12.60;99.90
9157;DHT22;4613;48.392;9.998;2022-10-31T00:14:20;12.50;99.90
9157;DHT22;4613;48.392;9.998;2022-10-31T00:17:10;12.60;99.90
9157;DHT22;4613;48.392;9.998;2022-10-31T00:19:59;12.60;99.90
9157;DHT22;4613;48.392;9.998;2022-10-31T00:22:49;12.40;99.90
9157;DHT22;4613;48.392;9.998;2022-10-31T00:25:39;12.50;99.90
9157;DHT22;4613;48.392;9.998;2022-10-31T00:28:30;12.40;99.90
9157;DHT22;4613;48.392;9.998;2022-10-31T00:31:20;12.40;99.90
9157;DHT22;4613;48.392;9.998;2022-10-31T00:34:10;12.40;99.90
9157;DHT22;4613;48.392;9.998;2022-10-31T00:36:59;12.40;99.90
9157;DHT22;4613;48.392;9.998;2022-10-31T00:39:49;12.20;99.90
9157;DHT22;4613;48.392;9.998;2022-10-31T00:42:40;12.40;99.90
9157;DHT22;4613;48.392;9.998;2022-10-31T00:45:30;12.40;99.90
9157;DHT22;4613;48.392;9.998;2022-10-31T00:48:22;12.30;99.90
9157;DHT22;4613;48.392;9.998;2022-10-31T00:51:11;12.10;99.90
9157;DHT22;4613;48.392;9.998;2022-10-31T00:54:02;12.00;99.90
9157;DHT22;4613;48.392;9.998;2022-10-31T00:56:52;12.10;99.90
9157;DHT22;4613;48.392;9.998;2022-10-31T00:59:42;12.20;99.90
9157;DHT22;4613;48.392;9.998;2022-10-31T01:02:31;11.90;99.90
9157;DHT22;4613;48.392;9.998;2022-10-31T01:05:21;11.90;99.90
9157;DHT22;4613;48.392;9.998;2022-10-31T01:08:10;12.20;99.90
9157;DHT22;4613;48.392;9.998;2022-10-31T01:11:01;12.10;99.90
9157;DHT22;4613;48.392;9.998;2022-10-31T01:13:52;11.90;99.90
9157;DHT22;4613;48.392;9.998;2022-10-31T01:16:42;12.40;99.90
9157;DHT22;4613;48.392;9.998;2022-10-31T01:19:31;12.20;99.90
9157;DHT22;4613;48.392;9.998;2022-10-31T01:22:21;11.90;99.90
9157;DHT22;4613;48.392;9.998;2022-10-31T01:25:10;11.80;99.90
9157;DHT22;4613;48.392;9.998;2022-10-31T01:27:59;11.60;99.90
9157;DHT22;4613;48.392;9.998;2022-10-31T01:30:49;11.70;99.90
9157;DHT22;4613;48.392;9.998;2022-10-31T01:33:39;12.10;99.90
9157;DHT22;4613;48.392;9.998;2022-10-31T01:36:47;12.20;99.90
9157;DHT22;4613;48.392;9.998;2022-10-31T01:39:40;12.30;99.90
9157;DHT22;4613;48.392;9.998;2022-10-31T01:42:30;12.40;99.90
9157;DHT22;4613;48.392;9.998;2022-10-31T01:45:20;12.20;99.90
9157;DHT22;4613;48.392;9.998;2022-10-31T01:48:15;12.10;99.90
9157;DHT22;4613;48.392;9.998;2022-10-31T01:51:07;12.40;99.90
9157;DHT22;4613;48.392;9.998;2022-10-31T01:54:00;12.10;99.90
9157;DHT22;4613;48.392;9.998;2022-10-31T01:56:53;11.90;99.90
9157;DHT22;4613;48.392;9.998;2022-10-31T01:59:47;12.00;99.90
9157;DHT22;4613;48.392;9.998;2022-10-31T02:02:37;12.00;99.90
9157;DHT22;4613;48.392;9.998;2022-10-31T02:05:29;11.70;99.90
9157;DHT22;4613;48.392;9.998;2022-10-31T02:08:29;11.70;99.90
9157;DHT22;4613;48.392;9.998;2022-10-31T02:11:19;11.70;99.90
9157;DHT22;4613;48.392;9.998;2022-10-31T02:14:09;11.70;99.90
9157;DHT22;4613;48.392;9.998;2022-10-31T02:16:58;11.90;99.90
9157;DHT22;4613;48.392;9.998;2022-10-31T02:19:57;11.60;99.90
9157;DHT22;4613;48.392;9.998;2022-10-31T02:32:03;11.10;99.90
9157;DHT22;4613;48.392;9.998;2022-10-31T02:35:23;11.20;99.90
9157;DHT22;4613;48.392;9.998;2022-10-31T02:41:39;11.50;99.90
9157;DHT22;4613;48.392;9.998;2022-10-31T02:47:35;11.60;99.90
9157;DHT22;4613;48.392;9.998;2022-10-31T02:50:29;12.00;99.90
9157;DHT22;4613;48.392;9.998;2022-10-31T02:53:20;11.50;99.90
9157;DHT22;4613;48.392;9.998;2022-10-31T02:56:16;11.50;99.90
9157;DHT22;4613;48.392;9.998;2022-10-31T02:59:07;11.60;99.90
9157;DHT22;4613;48.392;9.998;2022-10-31T03:09:08;11.00;99.90
9157;DHT22;4613;48.392;9.998;2022-10-31T03:12:09;11.10;99.90
9157;DHT22;4613;48.392;9.998;2022-10-31T03:21:23;10.90;99.90
9157;DHT22;4613;48.392;9.998;2022-10-31T03:24:15;10.80;99.90
9157;DHT22;4613;48.392;9.998;2022-10-31T03:27:09;10.80;99.90
9157;DHT22;4613;48.392;9.998;2022-10-31T03:30:03;10.80;99.90
9157;DHT22;4613;48.392;9.998;2022-10-31T03:32:59;11.00;99.90
9157;DHT22;4613;48.392;9.998;2022-10-31T03:35:54;11.20;99.90
9157;DHT22;4613;48.392;9.998;2022-10-31T03:38:46;11.30;99.90
9157;DHT22;4613;48.392;9.998;2022-10-31T03:41:42;11.20;99.90
9157;DHT22;4613;48.392;9.998;2022-10-31T03:44:33;11.20;99.90
9157;DHT22;4613;48.392;9.998;2022-10-31T03:47:25;11.20;99.90
9157;DHT22;4613;48.392;9.998;2022-10-31T03:50:15;11.00;99.90
9157;DHT22;4613;48.392;9.998;2022-10-31T03:53:11;10.90;99.90
9157;DHT22;4613;48.392;9.998;2022-10-31T03:56:10;11.20;99.90
9157;DHT22;4613;48.392;9.998;2022-10-31T03:59:08;11.30;99.90
9157;DHT22;4613;48.392;9.998;2022-10-31T04:02:03;11.20;99.90
9157;DHT22;4613;48.392;9.998;2022-10-31T04:04:55;10.70;99.90
9157;DHT22;4613;48.392;9.998;2022-10-31T04:07:47;10.70;99.90
9157;DHT22;4613;48.392;9.998;2022-10-31T04:10:40;10.80;99.90
9157;DHT22;4613;48.392;9.998;2022-10-31T04:13:33;10.80;99.90
9157;DHT22;4613;48.392;9.998;2022-10-31T04:16:30;10.50;99.90
9157;DHT22;4613;48.392;9.998;2022-10-31T04:19:19;10.80;99.90
9157;DHT22;4613;48.392;9.998;2022-10-31T04:22:09;11.00;99.90
9157;DHT22;4613;48.392;9.998;2022-10-31T04:25:00;10.90;99.90
9157;DHT22;4613;48.392;9.998;2022-10-31T04:27:53;10.70;99.90
9157;DHT22;4613;48.392;9.998;2022-10-31T04:30:46;10.80;99.90
9157;DHT22;4613;48.392;9.998;2022-10-31T04:33:35;11.00;99.90
9157;DHT22;4613;48.392;9.998;2022-10-31T04:36:25;10.70;99.90
9157;DHT22;4613;48.392;9.998;2022-10-31T04:39:16;10.90;99.90
9157;DHT22;4613;48.392;9.998;2022-10-31T04:42:14;10.90;99.90
9157;DHT22;4613;48.392;9.998;2022-10-31T04:45:04;10.70;99.90
9157;DHT22;4613;48.392;9.998;2022-10-31T04:47:55;10.70;99.90
9157;DHT22;4613;48.392;9.998;2022-10-31T04:50:46;10.80;99.90
9157;DHT22;4613;48.392;9.998;2022-10-31T04:53:38;10.80;99.90
9157;DHT22;4613;48.392;9.998;2022-10-31T04:56:46;10.70;99.90
9157;DHT22;4613;48.392;9.998;2022-10-31T04:59:41;10.80;99.90
9157;DHT22;4613;48.392;9.998;2022-10-31T05:02:41;10.70;99.90
9157;DHT22;4613;48.392;9.998;2022-10-31T05:05:32;10.60;99.90
9157;DHT22;4613;48.392;9.998;2022-10-31T05:08:24;10.60;99.90
9157;DHT22;4613;48.392;9.998;2022-10-31T05:11:15;10.50;99.90
9157;DHT22;4613;48.392;9.998;2022-10-31T05:14:07;10.40;99.90
9157;DHT22;4613;48.392;9.998;2022-10-31T05:17:30;10.60;99.90
9157;DHT22;4613;48.392;9.998;2022-10-31T05:20:40;10.70;99.90
9157;DHT22;4613;48.392;9.998;2022-10-31T05:23:52;10.60;99.90
9157;DHT22;4613;48.392;9.998;2022-10-31T05:26:43;10.30;99.90
9157;DHT22;4613;48.392;9.998;2022-10-31T05:29:33;10.00;99.90
9157;DHT22;4613;48.392;9.998;2022-10-31T05:32:25;10.10;99.90
9157;DHT22;4613;48.392;9.998;2022-10-31T05:35:33;9.90;99.90
9157;DHT22;4613;48.392;9.998;2022-10-31T05:38:40;10.00;99.90
9157;DHT22;4613;48.392;9.998;2022-10-31T05:41:46;10.30;99.90
9157;DHT22;4613;48.392;9.998;2022-10-31T05:44:44;10.40;99.90
9157;DHT22;4613;48.392;9.998;2022-10-31T05:47:53;10.30;99.90
9157;DHT22;4613;48.392;9.998;2022-10-31T05:51:09;10.30;99.90
9157;DHT22;4613;48.392;9.998;2022-10-31T05:53:59;10.20;99.90
9157;DHT22;4613;48.392;9.998;2022-10-31T05:56:49;10.30;99.90
9157;DHT22;4613;48.392;9.998;2022-10-31T05:59:38;10.50;99.90
9157;DHT22;4613;48.392;9.998;2022-10-31T06:02:31;10.50;99.90
9157;DHT22;4613;48.392;9.998;2022-10-31T06:05:44;10.20;99.90
9157;DHT22;4613;48.392;9.998;2022-10-31T06:08:35;9.90;99.90
9157;DHT22;4613;48.392;9.998;2022-10-31T06:11:27;10.10;99.90
9157;DHT22;4613;48.392;9.998;2022-10-31T06:14:26;9.80;99.90
9157;DHT22;4613;48.392;9.998;2022-10-31T06:17:17;10.00;99.90
9157;DHT22;4613;48.392;9.998;2022-10-31T06:20:10;9.90;99.90
9157;DHT22;4613;48.392;9.998;2022-10-31T06:23:09;10.00;99.90
9157;DHT22;4613;48.392;9.998;2022-10-31T06:25:59;9.70;99.90
9157;DHT22;4613;48.392;9.998;2022-10-31T06:28:49;9.90;99.90
9157;DHT22;4613;48.392;9.998;2022-10-31T06:32:02;9.80;99.90
9157;DHT22;4613;48.392;9.998;2022-10-31T06:34:53;10.10;99.90
9157;DHT22;4613;48.392;9.998;2022-10-31T06:37:50;10.00;99.90
9157;DHT22;4613;48.392;9.998;2022-10-31T06:40:51;10.30;99.90
9157;DHT22;4613;48.392;9.998;2022-10-31T06:43:48;10.60;99.90
9157;DHT22;4613;48.392;9.998;2022-10-31T06:47:01;10.30;99.90
9157;DHT22;4613;48.392;9.998;2022-10-31T06:49:57;10.30;99.90
9157;DHT22;4613;48.392;9.998;2022-10-31T06:52:53;10.20;99.90
9157;DHT22;4613;48.392;9.998;2022-10-31T06:55:43;10.20;99.90
9157;DHT22;4613;48.392;9.998;2022-10-31T06:58:33;10.10;99.90
9157;DHT22;4613;48.392;9.998;2022-10-31T07:01:26;10.50;99.90
9157;DHT22;4613;48.392;9.998;2022-10-31T07:04:16;10.60;99.90
9157;DHT22;4613;48.392;9.998;2022-10-31T07:07:06;10.80;99.90
9157;DHT22;4613;48.392;9.998;2022-10-31T07:09:56;10.90;99.90
9157;DHT22;4613;48.392;9.998;2022-10-31T07:13:12;10.60;99.90
9157;DHT22;4613;48.392;9.998;2022-10-31T07:16:09;11.10;99.90
9157;DHT22;4613;48.392;9.998;2022-10-31T07:19:03;11.40;99.90
9157;DHT22;4613;48.392;9.998;2022-10-31T07:21:54;11.60;99.90
9157;DHT22;4613;48.392;9.998;2022-10-31T07:24:47;12.40;99.90
9157;DHT22;4613;48.392;9.998;2022-10-31T07:28:05;12.80;99.90
9157;DHT22;4613;48.392;9.998;2022-10-31T07:30:56;12.10;99.90
9157;DHT22;4613;48.392;9.998;2022-10-31T07:33:46;12.20;99.90
9157;DHT22;4613;48.392;9.998;2022-10-31T07:36:51;12.30;99.90
9157;DHT22;4613;48.392;9.998;2022-10-31T07:39:42;12.40;99.90
9157;DHT22;4613;48.392;9.998;2022-10-31T07:42:42;12.90;99.90
9157;DHT22;4613;48.392;9.998;2022-10-31T07:45:53;12.80;99.90
9157;DHT22;4613;48.392;9.998;2022-10-31T07:49:03;12.90;99.90
9157;DHT22;4613;48.392;9.998;2022-10-31T07:52:25;12.90;99.90
9157;DHT22;4613;48.392;9.998;2022-10-31T07:55:41;13.10;99.90
9157;DHT22;4613;48.392;9.998;2022-10-31T07:58:31;12.40;99.90
9157;DHT22;4613;48.392;9.998;2022-10-31T08:01:21;12.40;99.90
9157;DHT22;4613;48.392;9.998;2022-10-31T08:04:29;12.40;99.90
9157;DHT22;4613;48.392;9.998;2022-10-31T08:07:42;12.90;99.90
9157;DHT22;4613;48.392;9.998;2022-10-31T08:10:40;13.10;99.90
9157;DHT22;4613;48.392;9.998;2022-10-31T08:13:30;12.70;99.90
9157;DHT22;4613;48.392;9.998;2022-10-31T08:16:20;12.80;99.90
9157;DHT22;4613;48.392;9.998;2022-10-31T08:19:24;13.10;99.90
9157;DHT22;4613;48.392;9.998;2022-10-31T08:22:14;13.40;99.90
9157;DHT22;4613;48.392;9.998;2022-10-31T08:25:04;13.60;99.90
9157;DHT22;4613;48.392;9.998;2022-10-31T08:27:55;13.80;99.90
9157;DHT22;4613;48.392;9.998;2022-10-31T08:30:45;14.20;99.90
9157;DHT22;4613;48.392;9.998;2022-10-31T08:34:11;14.30;99.90
9157;DHT22;4613;48.392;9.998;2022-10-31T08:37:19;14.40;99.90
9157;DHT22;4613;48.392;9.998;2022-10-31T08:40:12;14.20;99.90
9157;DHT22;4613;48.392;9.998;2022-10-31T08:43:14;14.50;99.90
9157;DHT22;4613;48.392;9.998;2022-10-31T08:46:03;15.20;99.90
9157;DHT22;4613;48.392;9.998;2022-10-31T08:48:55;15.20;99.90
9157;DHT22;4613;48.392;9.998;2022-10-31T08:51:48;15.60;99.90
9157;DHT22;4613;48.392;9.998;2022-10-31T08:54:39;15.70;99.90
9157;DHT22;4613;48.392;9.998;2022-10-31T08:57:54;15.50;99.90
9157;DHT22;4613;48.392;9.998;2022-10-31T09:00:48;15.50;99.90
9157;DHT22;4613;48.392;9.998;2022-10-31T09:03:43;15.40;99.90
9157;DHT22;4613;48.392;9.998;2022-10-31T09:06:33;15.10;99.90
9157;DHT22;4613;48.392;9.998;2022-10-31T09:12:28;15.60;99.90
9157;DHT22;4613;48.392;9.998;2022-10-31T09:15:40;16.30;99.90
9157;DHT22;4613;48.392;9.998;2022-10-31T09:18:44;16.80;99.90
9157;DHT22;4613;48.392;9.998;2022-10-31T09:21:33;16.50;99.90
9157;DHT22;4613;48.392;9.998;2022-10-31T09:24:23;16.40;99.90
9157;DHT22;4613;48.392;9.998;2022-10-31T09:27:12;16.70;99.90
9157;DHT22;4613;48.392;9.998;2022-10-31T09:30:07;15.60;99.90
9157;DHT22;4613;48.392;9.998;2022-10-31T09:33:02;16.00;99.90
9157;DHT22;4613;48.392;9.998;2022-10-31T09:35:52;16.20;99.90
9157;DHT22;4613;48.392;9.998;2022-10-31T09:38:42;16.30;99.90
9157;DHT22;4613;48.392;9.998;2022-10-31T09:51:44;16.20;99.90
9157;DHT22;4613;48.392;9.998;2022-10-31T09:54:58;16.70;99.90
9157;DHT22;4613;48.392;9.998;2022-10-31T09:57:49;16.70;99.90
9157;DHT22;4613;48.392;9.998;2022-10-31T10:00:40;16.20;99.90
9157;DHT22;4613;48.392;9.998;2022-10-31T10:03:39;16.60;99.90
9157;DHT22;4613;48.392;9.998;2022-10-31T10:06:50;16.80;99.90
9157;DHT22;4613;48.392;9.998;2022-10-31T10:10:22;16.40;99.90
9157;DHT22;4613;48.392;9.998;2022-10-31T10:22:52;16.50;99.90
9157;DHT22;4613;48.392;9.998;2022-10-31T10:25:47;16.60;99.90
9157;DHT22;4613;48.392;9.998;2022-10-31T10:28:40;16.90;99.90
9157;DHT22;4613;48.392;9.998;2022-10-31T10:31:39;16.20;99.90
9157;DHT22;4613;48.392;9.998;2022-10-31T10:34:34;16.50;99.90
9157;DHT22;4613;48.392;9.998;2022-10-31T10:37:39;16.50;99.90
9157;DHT22;4613;48.392;9.998;2022-10-31T10:40:30;16.70;99.90
9157;DHT22;4613;48.392;9.998;2022-10-31T10:46:55;16.70;99.90
9157;DHT22;4613;48.392;9.998;2022-10-31T10:50:17;16.60;99.90
9157;DHT22;4613;48.392;9.998;2022-10-31T11:00:18;17.50;99.90
9157;DHT22;4613;48.392;9.998;2022-10-31T11:03:09;18.00;99.90
9157;DHT22;4613;48.392;9.998;2022-10-31T11:05:59;18.20;99.90
9157;DHT22;4613;48.392;9.998;2022-10-31T11:08:50;18.10;99.90
9157;DHT22;4613;48.392;9.998;2022-10-31T11:11:39;18.30;99.90
9157;DHT22;4613;48.392;9.998;2022-10-31T11:14:29;18.30;99.90
9157;DHT22;4613;48.392;9.998;2022-10-31T11:17:34;18.30;99.90
9157;DHT22;4613;48.392;9.998;2022-10-31T11:20:35;17.50;99.90
9157;DHT22;4613;48.392;9.998;2022-10-31T11:23:27;17.60;99.90
9157;DHT22;4613;48.392;9.998;2022-10-31T11:26:20;18.30;99.90
9157;DHT22;4613;48.392;9.998;2022-10-31T11:32:04;19.20;99.90
9157;DHT22;4613;48.392;9.998;2022-10-31T11:34:55;19.30;99.90
9157;DHT22;4613;48.392;9.998;2022-10-31T11:37:46;19.50;99.90
9157;DHT22;4613;48.392;9.998;2022-10-31T11:40:38;19.60;99.90
9157;DHT22;4613;48.392;9.998;2022-10-31T11:43:28;19.70;99.90
9157;DHT22;4613;48.392;9.998;2022-10-31T11:46:22;20.00;99.90
9157;DHT22;4613;48.392;9.998;2022-10-31T11:49:37;20.30;99.90
9157;DHT22;4613;48.392;9.998;2022-10-31T11:52:29;20.10;99.90
9157;DHT22;4613;48.392;9.998;2022-10-31T11:59:30;20.20;99.90
9157;DHT22;4613;48.392;9.998;2022-10-31T12:02:20;19.90;99.90
9157;DHT22;4613;48.392;9.998;2022-10-31T12:05:26;19.90;99.90
9157;DHT22;4613;48.392;9.998;2022-10-31T12:08:21;19.70;99.90
9157;DHT22;4613;48.392;9.998;2022-10-31T12:11:32;19.60;99.90
9157;DHT22;4613;48.392;9.998;2022-10-31T12:20:44;19.00;99.90
9157;DHT22;4613;48.392;9.998;2022-10-31T12:27:19;19.50;99.90
9157;DHT22;4613;48.392;9.998;2022-10-31T12:30:28;19.00;99.90
9157;DHT22;4613;48.392;9.998;2022-10-31T12:42:46;17.90;99.90
9157;DHT22;4613;48.392;9.998;2022-10-31T12:48:52;17.30;99.90
9157;DHT22;4613;48.392;9.998;2022-10-31T12:55:02;17.30;99.90
9157;DHT22;4613;48.392;9.998;2022-10-31T12:57:58;17.40;99.90
9157;DHT22;4613;48.392;9.998;2022-10-31T13:01:02;17.30;99.90
9157;DHT22;4613;48.392;9.998;2022-10-31T13:04:12;17.00;99.90
9157;DHT22;4613;48.392;9.998;2022-10-31T13:07:08;17.30;99.90
9157;DHT22;4613;48.392;9.998;2022-10-31T13:10:20;17.20;99.90
9157;DHT22;4613;48.392;9.998;2022-10-31T13:13:40;16.80;99.90
9157;DHT22;4613;48.392;9.998;2022-10-31T13:16:37;16.70;99.90
9157;DHT22;4613;48.392;9.998;2022-10-31T13:19:41;16.90;99.90
9157;DHT22;4613;48.392;9.998;2022-10-31T13:22:32;16.70;99.90
9157;DHT22;4613;48.392;9.998;2022-10-31T13:25:30;16.90;99.90
9157;DHT22;4613;48.392;9.998;2022-10-31T13:28:40;17.10;99.90
9157;DHT22;4613;48.392;9.998;2022-10-31T13:31:30;17.10;99.90
9157;DHT22;4613;48.392;9.998;2022-10-31T13:34:25;17.10;99.90
9157;DHT22;4613;48.392;9.998;2022-10-31T13:37:23;17.10;99.90
9157;DHT22;4613;48.392;9.998;2022-10-31T13:52:29;16.90;99.90
9157;DHT22;4613;48.392;9.998;2022-10-31T13:55:45;16.90;99.90
9157;DHT22;4613;48.392;9.998;2022-10-31T13:58:35;17.00;99.90
9157;DHT22;4613;48.392;9.998;2022-10-31T14:01:26;17.10;99.90
9157;DHT22;4613;48.392;9.998;2022-10-31T14:04:22;17.10;99.90
9157;DHT22;4613;48.392;9.998;2022-10-31T14:07:15;17.00;99.90
9157;DHT22;4613;48.392;9.998;2022-10-31T14:10:20;17.10;99.90
9157;DHT22;4613;48.392;9.998;2022-10-31T14:13:35;17.20;99.90
9157;DHT22;4613;48.392;9.998;2022-10-31T14:16:31;17.20;99.90
9157;DHT22;4613;48.392;9.998;2022-10-31T14:19:24;17.20;99.90
9157;DHT22;4613;48.392;9.998;2022-10-31T14:22:21;17.30;99.90
9157;DHT22;4613;48.392;9.998;2022-10-31T14:28:33;17.40;99.90
9157;DHT22;4613;48.392;9.998;2022-10-31T14:31:35;17.50;99.90
9157;DHT22;4613;48.392;9.998;2022-10-31T14:34:36;17.50;99.90
9157;DHT22;4613;48.392;9.998;2022-10-31T14:38:15;17.40;99.90
9157;DHT22;4613;48.392;9.998;2022-10-31T14:41:29;17.50;99.90
9157;DHT22;4613;48.392;9.998;2022-10-31T14:47:42;17.50;99.90
9157;DHT22;4613;48.392;9.998;2022-10-31T14:53:35;17.40;99.90
9157;DHT22;4613;48.392;9.998;2022-10-31T14:56:27;17.40;99.90
9157;DHT22;4613;48.392;9.998;2022-10-31T14:59:21;17.20;99.90
9157;DHT22;4613;48.392;9.998;2022-10-31T15:02:17;17.10;99.90
9157;DHT22;4613;48.392;9.998;2022-10-31T15:05:11;17.20;99.90
9157;DHT22;4613;48.392;9.998;2022-10-31T15:08:01;17.40;99.90
9157;DHT22;4613;48.392;9.998;2022-10-31T15:10:51;17.50;99.90
9157;DHT22;4613;48.392;9.998;2022-10-31T15:13:49;17.30;99.90
9157;DHT22;4613;48.392;9.998;2022-10-31T15:16:41;17.40;99.90
9157;DHT22;4613;48.392;9.998;2022-10-31T15:19:33;17.80;99.90
9157;DHT22;4613;48.392;9.998;2022-10-31T15:22:24;17.50;99.90
9157;DHT22;4613;48.392;9.998;2022-10-31T15:25:28;17.20;99.90
9157;DHT22;4613;48.392;9.998;2022-10-31T15:28:23;17.10;99.90
9157;DHT22;4613;48.392;9.998;2022-10-31T15:31:15;16.90;99.90
9157;DHT22;4613;48.392;9.998;2022-10-31T15:34:14;16.90;99.90
9157;DHT22;4613;48.392;9.998;2022-10-31T15:37:12;16.80;99.90
9157;DHT22;4613;48.392;9.998;2022-10-31T15:40:12;16.70;99.90
9157;DHT22;4613;48.392;9.998;2022-10-31T15:43:04;16.60;99.90
9157;DHT22;4613;48.392;9.998;2022-10-31T15:46:00;16.50;99.90
9157;DHT22;4613;48.392;9.998;2022-10-31T15:48:50;16.50;99.90
9157;DHT22;4613;48.392;9.998;2022-10-31T15:51:40;16.40;99.90
9157;DHT22;4613;48.392;9.998;2022-10-31T15:54:29;16.40;99.90
9157;DHT22;4613;48.392;9.998;2022-10-31T15:57:19;16.40;99.90
9157;DHT22;4613;48.392;9.998;2022-10-31T16:00:26;16.30;99.90
9157;DHT22;4613;48.392;9.998;2022-10-31T16:03:24;16.30;99.90
9157;DHT22;4613;48.392;9.998;2022-10-31T16:06:21;16.20;99.90
9157;DHT22;4613;48.392;9.998;2022-10-31T16:09:25;16.10;99.90
9157;DHT22;4613;48.392;9.998;2022-10-31T16:12:15;16.10;99.90
9157;DHT22;4613;48.392;9.998;2022-10-31T16:15:05;16.10;99.90
9157;DHT22;4613;48.392;9.998;2022-10-31T16:17:55;16.00;99.90
9157;DHT22;4613;48.392;9.998;2022-10-31T16:20:50;16.00;99.90
9157;DHT22;4613;48.392;9.998;2022-10-31T16:23:47;16.00;99.90
9157;DHT22;4613;48.392;9.998;2022-10-31T16:26:38;15.90;99.90
9157;DHT22;4613;48.392;9.998;2022-10-31T16:30:01;15.90;99.90
9157;DHT22;4613;48.392;9.998;2022-10-31T16:32:57;15.90;99.90
9157;DHT22;4613;48.392;9.998;2022-10-31T16:35:47;15.70;99.90
9157;DHT22;4613;48.392;9.998;2022-10-31T16:38:37;15.60;99.90
9157;DHT22;4613;48.392;9.998;2022-10-31T16:41:26;15.50;99.90
9157;DHT22;4613;48.392;9.998;2022-10-31T16:44:25;15.40;99.90
9157;DHT22;4613;48.392;9.998;2022-10-31T16:47:16;15.30;99.90
9157;DHT22;4613;48.392;9.998;2022-10-31T16:50:16;15.30;99.90
9157;DHT22;4613;48.392;9.998;2022-10-31T16:53:06;15.30;99.90
9157;DHT22;4613;48.392;9.998;2022-10-31T16:55:57;15.30;99.90
9157;DHT22;4613;48.392;9.998;2022-10-31T16:58:48;15.20;99.90
9157;DHT22;4613;48.392;9.998;2022-10-31T17:01:39;15.20;99.90
9157;DHT22;4613;48.392;9.998;2022-10-31T17:04:29;15.30;99.90
9157;DHT22;4613;48.392;9.998;2022-10-31T17:07:19;15.20;99.90
9157;DHT22;4613;48.392;9.998;2022-10-31T17:10:09;15.20;99.90
9157;DHT22;4613;48.392;9.998;2022-10-31T17:13:00;15.20;99.90
9157;DHT22;4613;48.392;9.998;2022-10-31T17:15:54;15.00;99.90
9157;DHT22;4613;48.392;9.998;2022-10-31T17:18:43;15.00;99.90
9157;DHT22;4613;48.392;9.998;2022-10-31T17:21:35;15.00;99.90
9157;DHT22;4613;48.392;9.998;2022-10-31T17:24:24;14.90;99.90
9157;DHT22;4613;48.392;9.998;2022-10-31T17:27:14;14.90;99.90
9157;DHT22;4613;48.392;9.998;2022-10-31T17:30:04;14.80;99.90
9157;DHT22;4613;48.392;9.998;2022-10-31T17:32:53;14.80;99.90
9157;DHT22;4613;48.392;9.998;2022-10-31T17:35:44;14.70;99.90
9157;DHT22;4613;48.392;9.998;2022-10-31T17:38:33;14.80;99.90
9157;DHT22;4613;48.392;9.998;2022-10-31T17:41:22;14.80;99.90
9157;DHT22;4613;48.392;9.998;2022-10-31T17:44:12;14.70;99.90
9157;DHT22;4613;48.392;9.998;2022-10-31T17:47:02;14.70;99.90
9157;DHT22;4613;48.392;9.998;2022-10-31T17:49:52;14.60;99.90
9157;DHT22;4613;48.392;9.998;2022-10-31T17:52:42;14.60;99.90
9157;DHT22;4613;48.392;9.998;2022-10-31T17:55:32;14.70;99.90
9157;DHT22;4613;48.392;9.998;2022-10-31T17:58:21;14.70;99.90
9157;DHT22;4613;48.392;9.998;2022-10-31T18:01:16;14.50;99.90
9157;DHT22;4613;48.392;9.998;2022-10-31T18:04:06;14.50;99.90
9157;DHT22;4613;48.392;9.998;2022-10-31T18:06:55;14.40;99.90
9157;DHT22;4613;48.392;9.998;2022-10-31T18:09:48;14.40;99.90
9157;DHT22;4613;48.392;9.998;2022-10-31T18:12:39;14.10;99.90
9157;DHT22;4613;48.392;9.998;2022-10-31T18:15:28;14.10;99.90
9157;DHT22;4613;48.392;9.998;2022-10-31T18:18:18;14.10;99.90
9157;DHT22;4613;48.392;9.998;2022-10-31T18:21:08;14.30;99.90
9157;DHT22;4613;48.392;9.998;2022-10-31T18:23:59;14.30;99.90
9157;DHT22;4613;48.392;9.998;2022-10-31T18:26:49;14.20;99.90
9157;DHT22;4613;48.392;9.998;2022-10-31T18:29:38;14.10;99.90
9157;DHT22;4613;48.392;9.998;2022-10-31T18:32:28;14.10;99.90
9157;DHT22;4613;48.392;9.998;2022-10-31T18:35:18;14.20;99.90
9157;DHT22;4613;48.392;9.998;2022-10-31T18:38:07;14.10;99.90
9157;DHT22;4613;48.392;9.998;2022-10-31T18:40:58;14.00;99.90
9157;DHT22;4613;48.392;9.998;2022-10-31T18:43:47;13.90;99.90
9157;DHT22;4613;48.392;9.998;2022-10-31T18:46:38;14.00;99.90
9157;DHT22;4613;48.392;9.998;2022-10-31T18:49:28;14.10;99.90
9157;DHT22;4613;48.392;9.998;2022-10-31T18:52:20;14.10;99.90
9157;DHT22;4613;48.392;9.998;2022-10-31T18:55:10;14.10;99.90
9157;DHT22;4613;48.392;9.998;2022-10-31T18:57:59;13.90;99.90
9157;DHT22;4613;48.392;9.998;2022-10-31T19:00:49;14.00;99.90
9157;DHT22;4613;48.392;9.998;2022-10-31T19:03:39;13.90;99.90
9157;DHT22;4613;48.392;9.998;2022-10-31T19:06:29;13.80;99.90
9157;DHT22;4613;48.392;9.998;2022-10-31T19:09:19;13.80;99.90
9157;DHT22;4613;48.392;9.998;2022-10-31T19:12:08;13.70;99.90
9157;DHT22;4613;48.392;9.998;2022-10-31T19:14:58;13.70;99.90
9157;DHT22;4613;48.392;9.998;2022-10-31T19:17:47;13.80;99.90
9157;DHT22;4613;48.392;9.998;2022-10-31T19:20:39;13.70;99.90
9157;DHT22;4613;48.392;9.998;2022-10-31T19:23:28;13.70;99.90
9157;DHT22;4613;48.392;9.998;2022-10-31T19:26:18;13.60;99.90
9157;DHT22;4613;48.392;9.998;2022-10-31T19:29:08;13.60;99.90
9157;DHT22;4613;48.392;9.998;2022-10-31T19:31:58;13.60;99.90
9157;DHT22;4613;48.392;9.998;2022-10-31T19:34:48;13.60;99.90
9157;DHT22;4613;48.392;9.998;2022-10-31T19:37:39;13.50;99.90
9157;DHT22;4613;48.392;9.998;2022-10-31T19:40:28;13.40;99.90
9157;DHT22;4613;48.392;9.998;2022-10-31T19:43:17;13.50;99.90
9157;DHT22;4613;48.392;9.998;2022-10-31T19:46:08;13.50;99.90
9157;DHT22;4613;48.392;9.998;2022-10-31T19:48:58;13.40;99.90
9157;DHT22;4613;48.392;9.998;2022-10-31T19:51:48;13.40;99.90
9157;DHT22;4613;48.392;9.998;2022-10-31T19:54:37;13.50;99.90
9157;DHT22;4613;48.392;9.998;2022-10-31T19:57:27;13.40;99.90
9157;DHT22;4613;48.392;9.998;2022-10-31T20:00:16;13.20;99.90
9157;DHT22;4613;48.392;9.998;2022-10-31T20:03:07;13.20;99.90
9157;DHT22;4613;48.392;9.998;2022-10-31T20:05:57;13.30;99.90
9157;DHT22;4613;48.392;9.998;2022-10-31T20:08:46;13.20;99.90
9157;DHT22;4613;48.392;9.998;2022-10-31T20:11:37;13.20;99.90
9157;DHT22;4613;48.392;9.998;2022-10-31T20:14:26;13.30;99.90
9157;DHT22;4613;48.392;9.998;2022-10-31T20:17:16;12.80;99.90
9157;DHT22;4613;48.392;9.998;2022-10-31T20:20:06;12.90;99.90
9157;DHT22;4613;48.392;9.998;2022-10-31T20:22:57;13.00;99.90
9157;DHT22;4613;48.392;9.998;2022-10-31T20:25:47;12.90;99.90
9157;DHT22;4613;48.392;9.998;2022-10-31T20:28:37;12.70;99.90
9157;DHT22;4613;48.392;9.998;2022-10-31T20:31:32;12.40;99.90
9157;DHT22;4613;48.392;9.998;2022-10-31T20:34:21;12.50;99.90
9157;DHT22;4613;48.392;9.998;2022-10-31T20:37:10;12.10;99.90
9157;DHT22;4613;48.392;9.998;2022-10-31T20:40:00;12.20;99.90
9157;DHT22;4613;48.392;9.998;2022-10-31T20:42:50;12.20;99.90
9157;DHT22;4613;48.392;9.998;2022-10-31T20:45:40;11.90;99.90
9157;DHT22;4613;48.392;9.998;2022-10-31T20:48:30;12.00;99.90
9157;DHT22;4613;48.392;9.998;2022-10-31T20:51:26;12.10;99.90
9157;DHT22;4613;48.392;9.998;2022-10-31T20:54:19;12.00;99.90
9157;DHT22;4613;48.392;9.998;2022-10-31T20:57:09;12.10;99.90